createdAt,value
2022-08-16T00:00:04.271Z,13.07
2022-08-16T00:01:06.886Z,13.35
2022-08-16T00:02:13.167Z,13.20
2022-08-16T00:03:15.314Z,13.73
2022-08-16T00:04:17.689Z,12.82
2022-08-16T00:05:20.349Z,13.43
2022-08-16T00:06:22.410Z,11.95
2022-08-16T00:07:24.326Z,13.18
2022-08-16T00:08:36.690Z,14.38
2022-08-16T00:09:39.064Z,12.63
2022-08-16T00:10:43.704Z,14.07
2022-08-16T00:11:46.549Z,14.48
2022-08-16T00:12:54.744Z,11.75
2022-08-16T00:13:56.768Z,13.23
2022-08-16T00:15:01.200Z,12.60
2022-08-16T00:16:57.779Z,15.05
2022-08-16T00:17:26.859Z,12.32
2022-08-16T00:18:31.613Z,12.38
2022-08-16T00:19:41.645Z,13.20
2022-08-16T00:20:46.038Z,12.80
2022-08-16T00:21:52.200Z,12.55
2022-08-16T00:22:56.140Z,13.18
2022-08-16T00:23:58.002Z,11.85
2022-08-16T00:24:59.593Z,12.02
2022-08-16T00:26:35.446Z,12.73
2022-08-16T00:27:23.443Z,12.05
2022-08-16T00:28:25.049Z,12.45
2022-08-16T00:29:32.838Z,12.10
2022-08-16T00:30:34.944Z,13.95
2022-08-16T00:31:58.943Z,13.00
2022-08-16T00:33:00.662Z,12.43
2022-08-16T00:34:04.413Z,12.48
2022-08-16T00:35:15.304Z,12.23
2022-08-16T00:36:17.929Z,14.30
2022-08-16T00:37:24.645Z,12.73
2022-08-16T00:38:40.743Z,13.60
2022-08-16T00:39:45.855Z,12.13
2022-08-16T00:40:53.955Z,12.63
2022-08-16T00:41:56.317Z,12.95
2022-08-16T00:42:58.171Z,11.98
2022-08-16T00:44:10.920Z,13.30
2022-08-16T00:45:25.183Z,12.27
2022-08-16T00:46:35.573Z,12.52
2022-08-16T00:47:42.713Z,12.88
2022-08-16T00:48:52.354Z,12.32
2022-08-16T00:49:56.661Z,11.60
2022-08-16T00:51:00.014Z,12.05
2022-08-16T00:52:01.816Z,12.57
2022-08-16T00:53:09.345Z,12.20
2022-08-16T00:54:13.350Z,13.13
2022-08-16T00:55:15.645Z,12.75
2022-08-16T00:56:56.355Z,11.57
2022-08-16T00:57:59.051Z,16.55
2022-08-16T00:59:02.728Z,11.82
2022-08-16T01:00:08.270Z,12.10
2022-08-16T01:01:11.920Z,11.70
2022-08-16T01:02:31.795Z,13.25
2022-08-16T01:03:37.182Z,13.30
2022-08-16T01:04:43.448Z,13.88
2022-08-16T01:06:40.220Z,11.90
2022-08-16T01:07:28.828Z,12.55
2022-08-16T01:08:54.814Z,12.57
2022-08-16T01:09:56.517Z,11.82
2022-08-16T01:10:59.855Z,11.45
2022-08-16T01:12:08.453Z,12.50
2022-08-16T01:13:15.074Z,11.50
2022-08-16T01:14:32.554Z,11.63
2022-08-16T01:15:37.684Z,11.60
2022-08-16T01:16:46.744Z,12.90
2022-08-16T01:17:55.813Z,12.23
2022-08-16T01:19:12.046Z,13.35
2022-08-16T01:20:24.081Z,11.68
2022-08-16T01:21:39.878Z,12.82
2022-08-16T01:22:58.861Z,11.43
2022-08-16T01:24:02.259Z,13.88
2022-08-16T01:25:14.967Z,12.55
2022-08-16T01:26:34.658Z,14.45
2022-08-16T01:27:41.858Z,14.13
2022-08-16T01:28:47.890Z,11.77
2022-08-16T01:30:20.608Z,12.25
2022-08-16T01:31:30.987Z,12.70
2022-08-16T01:32:38.932Z,13.20
2022-08-16T01:33:44.603Z,13.20
2022-08-16T01:34:47.447Z,11.30
2022-08-16T01:36:12.108Z,12.80
2022-08-16T01:37:16.217Z,12.45
2022-08-16T01:38:20.121Z,12.07
2022-08-16T01:39:21.939Z,12.00
2022-08-16T01:40:30.635Z,11.35
2022-08-16T01:41:32.504Z,12.98
2022-08-16T01:42:47.983Z,11.95
2022-08-16T01:43:53.866Z,12.45
2022-08-16T01:44:56.153Z,12.18
2022-08-16T01:46:37.886Z,11.80
2022-08-16T01:47:23.738Z,11.43
2022-08-16T01:48:29.008Z,11.48
2022-08-16T01:49:45.505Z,14.57
2022-08-16T01:51:09.644Z,13.15
2022-08-16T01:52:28.090Z,12.60
2022-08-16T01:53:31.975Z,11.90
2022-08-16T01:54:37.442Z,12.82
2022-08-16T01:55:40.916Z,12.52
2022-08-16T01:56:43.050Z,11.75
2022-08-16T01:57:53.701Z,11.75
2022-08-16T01:59:00.962Z,14.80
2022-08-16T02:00:10.523Z,12.35
2022-08-16T02:01:21.204Z,12.98
2022-08-16T02:02:27.011Z,12.48
2022-08-16T02:03:30.414Z,12.90
2022-08-16T02:04:49.449Z,13.02
2022-08-16T02:05:55.666Z,11.98
2022-08-16T02:06:59.321Z,11.02
2022-08-16T02:08:02.225Z,12.38
2022-08-16T02:09:05.617Z,12.80
2022-08-16T02:10:08.506Z,12.70
2022-08-16T02:11:10.378Z,12.88
2022-08-16T02:12:50.044Z,11.98
2022-08-16T02:13:35.993Z,12.00
2022-08-16T02:14:43.869Z,12.15
2022-08-16T02:15:46.245Z,13.25
2022-08-16T02:16:53.055Z,11.65
2022-08-16T02:17:58.049Z,12.18
2022-08-16T02:19:00.686Z,12.43
2022-08-16T02:20:02.904Z,12.65
2022-08-16T02:21:13.880Z,13.30
2022-08-16T02:22:35.060Z,13.13
2022-08-16T02:23:38.424Z,12.10
2022-08-16T02:24:46.070Z,12.38
2022-08-16T02:25:51.823Z,12.40
2022-08-16T02:26:56.340Z,12.80
2022-08-16T02:27:59.399Z,11.88
2022-08-16T02:29:02.007Z,13.63
2022-08-16T02:30:06.978Z,12.50
2022-08-16T02:31:12.600Z,12.13
2022-08-16T02:32:50.753Z,12.90
2022-08-16T02:33:44.443Z,12.70
2022-08-16T02:34:51.831Z,12.48
2022-08-16T02:36:00.041Z,14.18
2022-08-16T02:37:02.547Z,11.85
2022-08-16T02:38:08.615Z,13.43
2022-08-16T02:39:14.927Z,12.65
2022-08-16T02:40:17.583Z,12.93
2022-08-16T02:41:19.782Z,12.23
2022-08-16T02:42:21.936Z,12.25
2022-08-16T02:43:26.650Z,12.45
2022-08-16T02:44:28.888Z,12.00
2022-08-16T02:45:30.495Z,13.65
2022-08-16T02:46:33.881Z,15.02
2022-08-16T02:48:01.122Z,12.05
2022-08-16T02:48:57.324Z,12.00
2022-08-16T02:50:54.289Z,11.60
2022-08-16T02:51:26.280Z,12.82
2022-08-16T02:52:29.433Z,12.52
2022-08-16T02:53:32.386Z,13.07
2022-08-16T02:54:34.993Z,11.80
2022-08-16T02:55:40.639Z,12.75
2022-08-16T02:56:43.363Z,11.82
2022-08-16T02:57:53.920Z,12.07
2022-08-16T02:58:56.908Z,11.85
2022-08-16T03:00:00.094Z,11.73
2022-08-16T03:01:07.277Z,11.55
2022-08-16T03:02:10.436Z,11.55
2022-08-16T03:03:12.476Z,12.35
2022-08-16T03:04:29.612Z,11.77
2022-08-16T03:05:41.279Z,11.60
2022-08-16T03:06:44.175Z,12.85
2022-08-16T03:07:50.526Z,12.43
2022-08-16T03:08:53.375Z,11.68
2022-08-16T03:09:55.004Z,12.30
2022-08-16T03:10:59.382Z,12.10
2022-08-16T03:12:02.500Z,11.13
2022-08-16T03:13:12.349Z,11.65
2022-08-16T03:14:21.143Z,11.20
2022-08-16T03:15:27.696Z,10.90
2022-08-16T03:16:37.607Z,11.40
2022-08-16T03:17:53.020Z,12.55
2022-08-16T03:18:55.204Z,11.95
2022-08-16T03:20:00.018Z,12.27
2022-08-16T03:21:04.565Z,11.35
2022-08-16T03:22:07.090Z,11.07
2022-08-16T03:23:08.892Z,11.77
2022-08-16T03:24:28.323Z,12.13
2022-08-16T03:25:41.058Z,11.48
2022-08-16T03:26:46.401Z,12.50
2022-08-16T03:27:48.009Z,11.77
2022-08-16T03:28:51.594Z,11.55
2022-08-16T03:29:54.514Z,11.27
2022-08-16T03:30:56.670Z,11.57
2022-08-16T03:32:01.313Z,10.60
2022-08-16T03:33:04.445Z,11.63
2022-08-16T03:34:07.071Z,11.20
2022-08-16T03:35:10.426Z,12.23
2022-08-16T03:36:31.205Z,11.40
2022-08-16T03:38:01.428Z,11.65
2022-08-16T03:38:57.350Z,11.23
2022-08-16T03:40:02.987Z,11.27
2022-08-16T03:41:24.560Z,11.98
2022-08-16T03:42:27.558Z,11.55
2022-08-16T03:43:51.968Z,11.10
2022-08-16T03:44:51.748Z,11.73
2022-08-16T03:46:05.031Z,12.43
2022-08-16T03:47:10.312Z,12.32
2022-08-16T03:48:14.945Z,13.13
2022-08-16T03:49:20.245Z,11.68
2022-08-16T03:50:26.026Z,11.82
2022-08-16T03:51:28.577Z,12.70
2022-08-16T03:52:31.419Z,11.23
2022-08-16T03:53:37.975Z,11.38
2022-08-16T03:54:53.038Z,11.48
2022-08-16T03:55:55.952Z,11.73
2022-08-16T03:56:59.077Z,15.02
2022-08-16T03:58:00.708Z,11.57
2022-08-16T03:59:02.369Z,11.48
2022-08-16T04:00:35.101Z,12.88
2022-08-16T04:01:35.400Z,11.73
2022-08-16T04:02:37.023Z,10.80
2022-08-16T04:03:41.945Z,11.23
2022-08-16T04:04:46.951Z,10.88
2022-08-16T04:05:51.195Z,12.82
2022-08-16T04:06:55.813Z,12.90
2022-08-16T04:07:57.467Z,12.98
2022-08-16T04:08:59.032Z,12.57
2022-08-16T04:10:33.924Z,12.27
2022-08-16T04:11:26.769Z,12.00
2022-08-16T04:12:54.626Z,11.50
2022-08-16T04:13:59.151Z,12.88
2022-08-16T04:15:12.329Z,10.77
2022-08-16T04:16:27.535Z,11.50
2022-08-16T04:17:29.737Z,11.45
2022-08-16T04:18:32.057Z,13.32
2022-08-16T04:19:35.437Z,10.98
2022-08-16T04:20:37.618Z,12.77
2022-08-16T04:21:45.693Z,11.40
2022-08-16T04:22:48.868Z,12.63
2022-08-16T04:23:51.384Z,13.98
2022-08-16T04:24:59.348Z,11.88
2022-08-16T04:26:02.163Z,14.07
2022-08-16T04:27:05.090Z,13.40
2022-08-16T04:28:53.015Z,12.38
2022-08-16T04:29:44.575Z,12.55
2022-08-16T04:30:50.469Z,13.10
2022-08-16T04:31:56.165Z,11.95
2022-08-16T04:33:00.386Z,12.82
2022-08-16T04:34:02.018Z,12.43
2022-08-16T04:35:16.122Z,13.93
2022-08-16T04:36:20.161Z,14.07
2022-08-16T04:37:22.196Z,11.65
2022-08-16T04:38:24.111Z,12.15
2022-08-16T04:39:45.862Z,12.18
2022-08-16T04:40:50.227Z,15.32
2022-08-16T04:41:56.999Z,13.93
2022-08-16T04:43:00.648Z,11.00
2022-08-16T04:44:02.698Z,12.02
2022-08-16T04:45:36.655Z,14.52
2022-08-16T04:47:02.903Z,12.25
2022-08-16T04:48:00.404Z,12.85
2022-08-16T04:49:03.284Z,15.20
2022-08-16T04:50:07.973Z,13.77
2022-08-16T04:51:12.386Z,16.33
2022-08-16T04:52:34.262Z,15.68
2022-08-16T04:53:36.854Z,12.25
2022-08-16T04:54:43.172Z,13.68
2022-08-16T04:55:45.066Z,13.60
2022-08-16T04:56:46.865Z,13.05
2022-08-16T04:57:53.609Z,12.57
2022-08-16T04:58:57.547Z,14.52
2022-08-16T04:59:59.699Z,13.50
2022-08-16T05:01:21.561Z,13.60
2022-08-16T05:02:41.934Z,14.95
2022-08-16T05:04:00.434Z,12.43
2022-08-16T05:05:03.809Z,13.85
2022-08-16T05:06:07.061Z,11.88
2022-08-16T05:07:14.989Z,13.43
2022-08-16T05:08:29.565Z,15.30
2022-08-16T05:09:32.101Z,15.77
2022-08-16T05:10:38.651Z,11.75
2022-08-16T05:11:40.494Z,13.85
2022-08-16T05:12:44.780Z,11.98
2022-08-16T05:13:48.669Z,12.30
2022-08-16T05:15:02.588Z,12.10
2022-08-16T05:16:04.972Z,11.93
2022-08-16T05:17:07.750Z,12.52
2022-08-16T05:18:15.823Z,14.27
2022-08-16T05:19:19.024Z,15.70
2022-08-16T05:20:38.564Z,15.02
2022-08-16T05:21:43.265Z,16.75
2022-08-16T05:22:45.124Z,14.43
2022-08-16T05:23:51.835Z,13.02
2022-08-16T05:24:57.838Z,13.20
2022-08-16T05:26:00.538Z,13.20
2022-08-16T05:27:11.161Z,16.02
2022-08-16T05:28:13.635Z,18.33
2022-08-16T05:29:15.449Z,15.52
2022-08-16T05:30:34.821Z,14.00
2022-08-16T05:31:38.614Z,13.13
2022-08-16T05:32:50.024Z,16.60
2022-08-16T05:33:53.285Z,13.82
2022-08-16T05:34:56.737Z,12.13
2022-08-16T05:35:58.664Z,15.50
2022-08-16T05:37:05.318Z,17.75
2022-08-16T05:38:32.329Z,13.18
2022-08-16T05:39:28.829Z,13.15
2022-08-16T05:40:30.693Z,15.35
2022-08-16T05:41:32.273Z,14.35
2022-08-16T05:42:35.615Z,12.45
2022-08-16T05:43:43.751Z,17.30
2022-08-16T05:44:49.302Z,15.00
2022-08-16T05:45:52.189Z,14.73
2022-08-16T05:46:56.435Z,18.30
2022-08-16T05:48:00.265Z,16.27
2022-08-16T05:49:08.511Z,15.93
2022-08-16T05:50:19.297Z,13.20
2022-08-16T05:51:35.299Z,13.65
2022-08-16T05:52:44.852Z,13.45
2022-08-16T05:53:46.680Z,15.18
2022-08-16T05:55:01.194Z,16.67
2022-08-16T05:56:03.891Z,14.77
2022-08-16T05:57:06.279Z,13.20
2022-08-16T05:58:08.408Z,15.02
2022-08-16T05:59:10.834Z,16.02
2022-08-16T06:00:22.395Z,13.88
2022-08-16T06:01:24.395Z,13.43
2022-08-16T06:02:28.910Z,14.85
2022-08-16T06:03:31.074Z,13.27
2022-08-16T06:04:37.611Z,14.30
2022-08-16T06:05:41.442Z,12.85
2022-08-16T06:06:55.958Z,15.57
2022-08-16T06:07:59.224Z,13.13
2022-08-16T06:09:00.985Z,13.45
2022-08-16T06:10:02.801Z,12.60
2022-08-16T06:11:10.209Z,13.52
2022-08-16T06:12:26.785Z,12.95
2022-08-16T06:13:32.679Z,15.55
2022-08-16T06:14:34.475Z,17.08
2022-08-16T06:15:37.836Z,16.75
2022-08-16T06:16:43.237Z,14.40
2022-08-16T06:17:45.775Z,16.95
2022-08-16T06:18:47.898Z,15.27
2022-08-16T06:19:49.501Z,12.95
2022-08-16T06:20:55.659Z,17.02
2022-08-16T06:21:57.680Z,14.65
2022-08-16T06:23:04.079Z,14.65
2022-08-16T06:24:53.570Z,14.02
2022-08-16T06:25:39.490Z,18.98
2022-08-16T06:26:57.417Z,15.25
2022-08-16T06:28:00.283Z,15.00
2022-08-16T06:29:02.893Z,12.73
2022-08-16T06:30:07.558Z,13.25
2022-08-16T06:31:12.171Z,17.35
2022-08-16T06:32:27.353Z,12.98
2022-08-16T06:33:30.203Z,13.80
2022-08-16T06:34:56.611Z,13.52
2022-08-16T06:35:59.698Z,11.60
2022-08-16T06:37:01.635Z,12.82
2022-08-16T06:38:04.609Z,13.75
2022-08-16T06:39:06.382Z,13.60
2022-08-16T06:40:12.982Z,13.65
2022-08-16T06:41:17.593Z,16.15
2022-08-16T06:42:19.242Z,14.35
2022-08-16T06:43:21.395Z,11.75
2022-08-16T06:44:29.244Z,14.35
2022-08-16T06:45:31.292Z,16.70
2022-08-16T06:46:36.792Z,20.90
2022-08-16T06:47:52.595Z,16.67
2022-08-16T06:48:55.710Z,15.95
2022-08-16T06:49:59.080Z,16.80
2022-08-16T06:51:03.323Z,14.88
2022-08-16T06:52:05.225Z,16.67
2022-08-16T06:53:26.789Z,13.82
2022-08-16T06:54:31.401Z,13.80
2022-08-16T06:55:35.114Z,17.90
2022-08-16T06:56:40.117Z,17.85
2022-08-16T06:57:43.253Z,15.75
2022-08-16T06:58:46.564Z,15.40
2022-08-16T06:59:52.375Z,14.73
2022-08-16T07:01:03.464Z,14.77
2022-08-16T07:02:33.435Z,14.88
2022-08-16T07:03:55.757Z,16.88
2022-08-16T07:04:55.038Z,17.00
2022-08-16T07:05:57.605Z,20.25
2022-08-16T07:06:59.679Z,16.45
2022-08-16T07:08:04.261Z,20.27
2022-08-16T07:09:09.748Z,17.83
2022-08-16T07:10:12.349Z,17.08
2022-08-16T07:11:17.178Z,15.90
2022-08-16T07:12:19.487Z,14.07
2022-08-16T07:13:57.977Z,15.23
2022-08-16T07:14:44.643Z,16.15
2022-08-16T07:15:50.653Z,14.32
2022-08-16T07:16:53.246Z,15.35
2022-08-16T07:17:54.939Z,12.88
2022-08-16T07:19:01.369Z,13.32
2022-08-16T07:20:35.492Z,17.38
2022-08-16T07:21:46.646Z,15.98
2022-08-16T07:22:58.828Z,13.73
2022-08-16T07:24:06.157Z,13.63
2022-08-16T07:25:11.763Z,19.73
2022-08-16T07:26:25.294Z,17.67
2022-08-16T07:27:27.662Z,18.67
2022-08-16T07:28:29.287Z,16.83
2022-08-16T07:29:31.567Z,16.38
2022-08-16T07:30:38.870Z,15.75
2022-08-16T07:31:47.850Z,15.73
2022-08-16T07:32:51.463Z,18.25
2022-08-16T07:33:54.740Z,16.13
2022-08-16T07:34:56.646Z,16.27
2022-08-16T07:35:59.519Z,17.20
2022-08-16T07:37:05.469Z,14.95
2022-08-16T07:38:07.496Z,17.98
2022-08-16T07:39:09.070Z,17.38
2022-08-16T07:40:12.882Z,18.33
2022-08-16T07:41:15.191Z,17.27
2022-08-16T07:42:20.144Z,16.25
2022-08-16T07:43:29.334Z,17.25
2022-08-16T07:44:49.041Z,19.70
2022-08-16T07:45:53.047Z,20.50
2022-08-16T07:46:56.385Z,18.85
2022-08-16T07:47:58.110Z,18.08
2022-08-16T07:49:02.630Z,21.80
2022-08-16T07:50:07.502Z,18.90
2022-08-16T07:51:09.546Z,14.05
2022-08-16T07:52:18.997Z,17.50
2022-08-16T07:53:22.007Z,15.18
2022-08-16T07:54:37.759Z,15.65
2022-08-16T07:55:47.614Z,19.10
2022-08-16T07:56:49.857Z,18.10
2022-08-16T07:58:00.597Z,15.70
2022-08-16T07:59:06.012Z,19.13
2022-08-16T08:00:08.668Z,18.17
2022-08-16T08:01:20.438Z,16.17
2022-08-16T08:02:28.505Z,16.27
2022-08-16T08:03:39.258Z,18.27
2022-08-16T08:04:42.149Z,18.42
2022-08-16T08:05:44.010Z,16.92
2022-08-16T08:06:51.055Z,16.73
2022-08-16T08:07:53.798Z,18.80
2022-08-16T08:09:00.370Z,18.90
2022-08-16T08:10:02.280Z,19.08
2022-08-16T08:11:09.350Z,17.90
2022-08-16T08:12:31.915Z,22.73
2022-08-16T08:13:42.621Z,20.95
2022-08-16T08:14:46.191Z,21.35
2022-08-16T08:15:52.457Z,18.67
2022-08-16T08:16:54.782Z,17.60
2022-08-16T08:17:56.631Z,16.63
2022-08-16T08:19:18.152Z,15.70
2022-08-16T08:20:28.346Z,14.68
2022-08-16T08:22:01.086Z,17.95
2022-08-16T08:23:01.035Z,14.55
2022-08-16T08:24:03.355Z,14.32
2022-08-16T08:25:11.656Z,13.02
2022-08-16T08:26:17.782Z,16.00
2022-08-16T08:27:22.854Z,14.63
2022-08-16T08:28:25.622Z,15.82
2022-08-16T08:29:37.506Z,12.27
2022-08-16T08:30:51.359Z,13.18
2022-08-16T08:32:03.176Z,11.77
2022-08-16T08:33:24.718Z,13.88
2022-08-16T08:34:29.377Z,8.57
2022-08-16T08:35:32.329Z,10.65
2022-08-16T08:36:37.030Z,14.25
2022-08-16T08:37:55.191Z,15.38
2022-08-16T08:38:57.663Z,10.52
2022-08-16T08:40:00.691Z,10.20
2022-08-16T08:41:05.165Z,10.88
2022-08-16T08:42:07.733Z,9.70
2022-08-16T08:43:18.132Z,10.95
2022-08-16T08:44:28.969Z,10.20
2022-08-16T08:45:52.987Z,9.15
2022-08-16T08:47:00.021Z,8.80
2022-08-16T08:48:03.444Z,10.30
2022-08-16T08:49:08.851Z,9.35
2022-08-16T08:50:11.124Z,8.85
2022-08-16T08:51:12.731Z,8.15
2022-08-16T08:52:34.217Z,9.30
2022-08-16T08:53:37.141Z,8.30
2022-08-16T08:54:39.185Z,8.10
2022-08-16T08:55:42.504Z,9.85
2022-08-16T08:56:45.901Z,10.68
2022-08-16T08:57:48.008Z,10.98
2022-08-16T08:58:54.215Z,12.27
2022-08-16T09:00:00.740Z,9.45
2022-08-16T09:01:05.328Z,10.80
2022-08-16T09:02:11.632Z,9.50
2022-08-16T09:03:14.813Z,10.18
2022-08-16T09:04:18.024Z,8.82
2022-08-16T09:05:23.146Z,8.95
2022-08-16T09:06:43.718Z,9.85
2022-08-16T09:07:54.772Z,12.02
2022-08-16T09:09:04.748Z,10.32
2022-08-16T09:10:20.299Z,9.70
2022-08-16T09:11:22.588Z,9.77
2022-08-16T09:12:42.665Z,13.32
2022-08-16T09:13:48.811Z,11.35
2022-08-16T09:14:52.594Z,9.60
2022-08-16T09:15:58.293Z,8.45
2022-08-16T09:17:03.314Z,11.50
2022-08-16T09:18:25.197Z,13.35
2022-08-16T09:19:32.819Z,8.48
2022-08-16T09:20:35.669Z,9.48
2022-08-16T09:21:57.722Z,9.25
2022-08-16T09:23:02.727Z,11.52
2022-08-16T09:24:09.901Z,9.68
2022-08-16T09:25:14.689Z,10.95
2022-08-16T09:26:42.999Z,8.77
2022-08-16T09:27:56.579Z,9.05
2022-08-16T09:29:14.835Z,10.25
2022-08-16T09:30:42.926Z,11.02
2022-08-16T09:31:41.949Z,9.15
2022-08-16T09:32:46.946Z,10.68
2022-08-16T09:33:51.761Z,10.32
2022-08-16T09:34:53.857Z,10.55
2022-08-16T09:36:01.173Z,8.65
2022-08-16T09:37:03.358Z,8.07
2022-08-16T09:38:31.137Z,9.23
2022-08-16T09:39:41.446Z,9.70
2022-08-16T09:40:47.144Z,10.65
2022-08-16T09:41:53.391Z,9.35
2022-08-16T09:43:05.816Z,11.02
2022-08-16T09:45:09.246Z,13.32
2022-08-16T09:45:30.200Z,7.88
2022-08-16T09:46:49.040Z,8.45
2022-08-16T09:47:57.064Z,10.65
2022-08-16T09:49:03.723Z,9.90
2022-08-16T09:50:11.856Z,9.57
2022-08-16T09:51:14.256Z,8.70
2022-08-16T09:52:15.967Z,9.15
2022-08-16T09:53:23.008Z,8.85
2022-08-16T09:54:32.396Z,9.38
2022-08-16T09:55:44.562Z,9.18
2022-08-16T09:56:51.385Z,8.18
2022-08-16T09:57:55.181Z,8.95
2022-08-16T09:59:05.019Z,10.27
2022-08-16T10:00:42.422Z,11.13
2022-08-16T10:01:36.522Z,8.30
2022-08-16T10:02:44.097Z,8.82
2022-08-16T10:04:01.874Z,7.80
2022-08-16T10:05:04.987Z,8.85
2022-08-16T10:06:07.051Z,8.23
2022-08-16T10:07:16.057Z,8.35
2022-08-16T10:08:26.226Z,7.85
2022-08-16T10:09:53.478Z,10.43
2022-08-16T10:11:09.579Z,7.70
2022-08-16T10:12:30.224Z,10.30
2022-08-16T10:13:34.329Z,7.57
2022-08-16T10:14:36.646Z,11.23
2022-08-16T10:15:41.739Z,9.13
2022-08-16T10:16:45.750Z,9.13
2022-08-16T10:18:00.171Z,12.52
2022-08-16T10:19:06.704Z,12.75
2022-08-16T10:20:13.711Z,14.18
2022-08-16T10:21:22.695Z,10.07
2022-08-16T10:22:25.136Z,23.38
2022-08-16T10:23:28.714Z,13.75
2022-08-16T10:24:30.957Z,17.15
2022-08-16T10:27:16.491Z,11.60
2022-08-16T10:27:19.841Z,14.57
2022-08-16T10:28:29.038Z,13.30
2022-08-16T10:30:00.646Z,15.55
2022-08-16T10:30:56.526Z,25.92
2022-08-16T10:32:00.673Z,35.05
2022-08-16T10:33:05.625Z,31.08
2022-08-16T10:34:31.872Z,26.95
2022-08-16T10:35:32.942Z,19.25
2022-08-16T10:36:38.952Z,14.57
2022-08-16T10:37:41.599Z,23.40
2022-08-16T10:38:43.674Z,15.18
2022-08-16T10:39:45.429Z,11.70
2022-08-16T10:40:48.125Z,11.75
2022-08-16T10:41:49.832Z,12.88
2022-08-16T10:42:51.532Z,14.43
2022-08-16T10:43:53.136Z,11.52
2022-08-16T10:44:55.074Z,10.88
2022-08-16T10:45:57.224Z,9.95
2022-08-16T10:47:02.480Z,8.00
2022-08-16T10:48:27.732Z,9.68
2022-08-16T10:49:28.534Z,9.70
2022-08-16T10:50:32.419Z,8.60
2022-08-16T10:51:44.856Z,12.73
2022-08-16T10:52:59.183Z,9.93
2022-08-16T10:54:01.230Z,9.32
2022-08-16T10:56:52.241Z,9.73
2022-08-16T10:57:49.166Z,15.27
2022-08-16T10:58:50.840Z,10.27
2022-08-16T10:59:57.744Z,12.07
2022-08-16T11:01:00.576Z,10.98
2022-08-16T11:03:42.663Z,10.90
2022-08-16T11:06:12.223Z,8.55
2022-08-16T11:08:40.777Z,11.25
2022-08-16T11:09:46.520Z,8.82
2022-08-16T11:11:07.049Z,11.50
2022-08-16T11:12:13.825Z,10.43
2022-08-16T11:17:32.688Z,9.60
2022-08-16T11:19:03.979Z,8.57
2022-08-16T11:21:29.453Z,9.13
2022-08-16T11:22:46.933Z,7.88
2022-08-16T11:23:56.933Z,8.98
2022-08-16T11:26:06.383Z,9.18
2022-08-16T11:26:24.378Z,10.52
2022-08-16T11:27:35.694Z,9.45
2022-08-16T11:29:59.990Z,11.13
2022-08-16T11:31:03.321Z,8.25
2022-08-16T11:32:06.148Z,11.70
2022-08-16T11:33:09.684Z,10.73
2022-08-16T11:34:15.518Z,9.45
2022-08-16T11:36:59.256Z,10.57
2022-08-16T11:38:06.065Z,9.65
2022-08-16T11:39:28.248Z,10.00
2022-08-16T11:40:37.771Z,10.75
2022-08-16T11:41:40.080Z,11.18
2022-08-16T11:42:45.544Z,9.05
2022-08-16T11:43:47.155Z,11.02
2022-08-16T11:44:52.794Z,11.23
2022-08-16T11:46:01.551Z,13.13
2022-08-16T11:47:22.077Z,8.95
2022-08-16T11:48:29.739Z,11.75
2022-08-16T11:49:31.541Z,9.68
2022-08-16T11:50:34.493Z,9.40
2022-08-16T11:51:36.234Z,8.93
2022-08-16T11:52:39.165Z,8.50
2022-08-16T11:53:48.164Z,9.52
2022-08-16T11:54:56.905Z,9.90
2022-08-16T11:56:02.001Z,8.93
2022-08-16T11:57:08.969Z,9.75
2022-08-16T11:58:11.942Z,9.18
2022-08-16T11:59:16.059Z,8.73
2022-08-16T12:00:34.084Z,10.45
2022-08-16T12:01:44.401Z,10.60
2022-08-16T12:02:57.803Z,8.52
2022-08-16T12:04:00.038Z,10.48
2022-08-16T12:05:02.138Z,10.30
2022-08-16T12:06:25.583Z,8.80
2022-08-16T12:07:33.353Z,10.23
2022-08-16T12:08:35.626Z,8.85
2022-08-16T12:09:43.078Z,6.72
2022-08-16T12:10:46.158Z,7.70
2022-08-16T12:11:52.698Z,7.13
2022-08-16T12:12:55.563Z,6.68
2022-08-16T12:14:05.189Z,6.65
2022-08-16T12:15:07.722Z,8.30
2022-08-16T12:16:10.284Z,8.98
2022-08-16T12:17:11.994Z,6.05
2022-08-16T12:18:13.985Z,9.32
2022-08-16T12:19:33.785Z,7.95
2022-08-16T12:20:40.743Z,8.32
2022-08-16T12:21:58.524Z,8.68
2022-08-16T12:23:00.733Z,8.27
2022-08-16T12:24:02.674Z,9.20
2022-08-16T12:25:11.421Z,9.02
2022-08-16T12:26:13.042Z,7.95
2022-08-16T12:27:14.803Z,7.45
2022-08-16T12:28:16.869Z,7.93
2022-08-16T12:29:38.322Z,8.32
2022-08-16T12:30:42.951Z,9.45
2022-08-16T12:32:00.968Z,6.72
2022-08-16T12:33:08.629Z,6.90
2022-08-16T12:34:10.472Z,7.68
2022-08-16T12:35:22.712Z,8.18
2022-08-16T12:36:24.835Z,7.15
2022-08-16T12:37:27.633Z,7.53
2022-08-16T12:38:41.768Z,7.10
2022-08-16T12:39:52.055Z,6.32
2022-08-16T12:40:55.680Z,8.23
2022-08-16T12:41:59.184Z,7.45
2022-08-16T12:43:06.275Z,8.07
2022-08-16T12:44:07.898Z,10.80
2022-08-16T12:45:14.539Z,6.35
2022-08-16T12:46:16.540Z,7.63
2022-08-16T12:47:37.482Z,7.30
2022-08-16T12:48:58.473Z,6.93
2022-08-16T12:50:01.900Z,8.57
2022-08-16T12:51:19.975Z,9.82
2022-08-16T12:52:33.039Z,10.30
2022-08-16T12:53:39.963Z,9.60
2022-08-16T12:54:41.822Z,8.98
2022-08-16T12:55:44.950Z,9.93
2022-08-16T12:56:47.117Z,7.15
2022-08-16T12:57:58.021Z,7.75
2022-08-16T12:59:03.150Z,9.05
2022-08-16T13:00:12.839Z,10.55
2022-08-16T13:01:33.294Z,10.10
2022-08-16T13:02:36.574Z,8.48
2022-08-16T13:03:40.615Z,7.95
2022-08-16T13:04:42.411Z,9.40
2022-08-16T13:05:55.502Z,9.40
2022-08-16T13:06:59.140Z,8.05
2022-08-16T13:08:00.984Z,9.63
2022-08-16T13:09:18.315Z,7.45
2022-08-16T13:10:38.064Z,7.25
2022-08-16T13:11:49.222Z,10.43
2022-08-16T13:12:58.742Z,8.23
2022-08-16T13:14:00.335Z,7.18
2022-08-16T13:15:02.313Z,8.05
2022-08-16T13:16:15.162Z,6.15
2022-08-16T13:17:26.409Z,8.00
2022-08-16T13:18:34.049Z,7.80
2022-08-16T13:20:06.531Z,10.25
2022-08-16T13:20:59.866Z,7.03
2022-08-16T13:22:01.636Z,7.75
2022-08-16T13:23:11.397Z,9.90
2022-08-16T13:24:12.985Z,8.95
2022-08-16T13:25:22.747Z,8.27
2022-08-16T13:26:26.419Z,6.85
2022-08-16T13:28:03.410Z,6.50
2022-08-16T13:28:50.170Z,8.48
2022-08-16T13:29:57.768Z,6.80
2022-08-16T13:31:00.032Z,8.95
2022-08-16T13:32:01.827Z,7.82
2022-08-16T13:33:12.256Z,8.15
2022-08-16T13:34:17.769Z,7.40
2022-08-16T13:35:22.512Z,8.18
2022-08-16T13:36:48.509Z,7.50
2022-08-16T13:37:45.932Z,6.45
2022-08-16T13:38:49.720Z,7.13
2022-08-16T13:39:53.148Z,10.90
2022-08-16T13:40:56.796Z,10.85
2022-08-16T13:42:02.255Z,5.72
2022-08-16T13:43:04.091Z,6.05
2022-08-16T13:44:09.216Z,7.38
2022-08-16T13:45:13.361Z,8.32
2022-08-16T13:46:17.465Z,7.95
2022-08-16T13:47:19.510Z,6.97
2022-08-16T13:48:24.471Z,8.30
2022-08-16T13:49:26.857Z,9.55
2022-08-16T13:50:49.959Z,6.78
2022-08-16T13:51:53.818Z,6.72
2022-08-16T13:52:56.054Z,7.40
2022-08-16T13:54:03.872Z,8.75
2022-08-16T13:55:07.043Z,7.03
2022-08-16T13:56:24.767Z,7.03
2022-08-16T13:57:53.527Z,7.45
2022-08-16T13:58:54.130Z,7.57
2022-08-16T13:59:57.792Z,5.70
2022-08-16T14:01:00.915Z,7.15
2022-08-16T14:02:06.809Z,8.23
2022-08-16T14:03:09.189Z,8.20
2022-08-16T14:04:18.889Z,7.05
2022-08-16T14:05:25.008Z,6.85
2022-08-16T14:06:26.804Z,8.63
2022-08-16T14:07:30.334Z,8.93
2022-08-16T14:08:32.265Z,7.03
2022-08-16T14:09:36.281Z,6.85
2022-08-16T14:10:38.385Z,8.52
2022-08-16T14:11:40.002Z,7.18
2022-08-16T14:12:41.659Z,8.75
2022-08-16T14:13:44.143Z,9.07
2022-08-16T14:14:47.148Z,7.05
2022-08-16T14:15:49.106Z,6.60
2022-08-16T14:16:51.709Z,9.32
2022-08-16T14:18:15.400Z,6.35
2022-08-16T14:19:18.400Z,9.52
2022-08-16T14:20:24.769Z,6.63
2022-08-16T14:21:26.416Z,8.38
2022-08-16T14:22:39.884Z,7.70
2022-08-16T14:23:44.501Z,8.02
2022-08-16T14:24:48.927Z,6.13
2022-08-16T14:25:53.979Z,7.70
2022-08-16T14:26:56.151Z,9.40
2022-08-16T14:27:58.792Z,7.20
2022-08-16T14:29:03.824Z,8.52
2022-08-16T14:30:07.194Z,8.90
2022-08-16T14:31:09.594Z,7.57
2022-08-16T14:32:13.159Z,9.00
2022-08-16T14:33:32.036Z,7.05
2022-08-16T14:34:34.684Z,7.03
2022-08-16T14:35:49.348Z,8.10
2022-08-16T14:36:53.061Z,6.47
2022-08-16T14:37:57.031Z,7.75
2022-08-16T14:39:00.184Z,6.35
2022-08-16T14:40:03.333Z,6.22
2022-08-16T14:41:05.363Z,10.52
2022-08-16T14:42:20.244Z,6.35
2022-08-16T14:43:22.067Z,10.73
2022-08-16T14:44:24.293Z,6.05
2022-08-16T14:45:29.304Z,8.90
2022-08-16T14:46:31.982Z,7.68
2022-08-16T14:47:37.197Z,8.00
2022-08-16T14:48:38.964Z,7.95
2022-08-16T14:49:41.599Z,8.73
2022-08-16T14:50:45.236Z,6.93